createdAt,value
2022-12-29T00:02:19.165Z,100030.13
2022-12-29T00:04:48.925Z,100018.53
2022-12-29T00:07:16.845Z,100014.63
2022-12-29T00:09:46.441Z,100017.53
2022-12-29T00:12:14.368Z,100008.03
2022-12-29T00:15:00.289Z,100002.81
2022-12-29T00:17:28.541Z,100001.75
2022-12-29T00:20:15.544Z,100001.78
2022-12-29T00:23:03.479Z,99993.31
2022-12-29T00:25:49.408Z,99995.47
2022-12-29T00:28:35.000Z,100002.66
2022-12-29T00:31:20.733Z,99995.50
2022-12-29T00:34:06.436Z,100001.31
2022-12-29T00:36:39.170Z,100002.94
2022-12-29T00:39:27.884Z,100000.81
2022-12-29T00:42:13.605Z,99997.63
2022-12-29T00:44:41.581Z,99999.78
2022-12-29T00:47:11.608Z,99995.50
2022-12-29T00:49:39.354Z,99993.13
2022-12-29T00:52:10.743Z,99995.50
2022-12-29T00:54:40.156Z,99999.75
2022-12-29T00:57:10.549Z,99997.09
2022-12-29T00:59:39.473Z,99997.06
2022-12-29T01:02:08.227Z,100002.09
2022-12-29T01:04:36.848Z,100000.25
2022-12-29T01:07:05.635Z,100010.88
2022-12-29T01:09:52.680Z,100006.63
2022-12-29T01:12:41.185Z,100002.41
2022-12-29T01:15:13.704Z,100002.91
2022-12-29T01:17:43.613Z,100000.75
2022-12-29T01:20:12.678Z,99993.03
2022-12-29T01:22:43.367Z,99987.50
2022-12-29T01:25:12.850Z,99990.19
2022-12-29T01:27:41.545Z,99981.22
2022-12-29T01:30:10.682Z,99982.84
2022-12-29T01:32:39.036Z,99992.44
2022-12-29T01:35:07.497Z,99987.66
2022-12-29T01:37:36.923Z,99989.50
2022-12-29T01:40:05.627Z,99986.59
2022-12-29T01:42:35.604Z,99990.59
2022-12-29T01:45:05.164Z,99982.66
2022-12-29T01:47:36.985Z,99981.88
2022-12-29T01:50:07.645Z,99984.28
2022-12-29T01:52:37.398Z,100006.34
2022-12-29T01:55:07.420Z,100002.66
2022-12-29T01:57:40.075Z,100003.22
2022-12-29T02:00:10.400Z,99991.56
2022-12-29T02:02:42.662Z,99998.72
2022-12-29T02:05:18.093Z,99997.91
2022-12-29T02:07:47.077Z,99991.47
2022-12-29T02:10:15.545Z,99993.41
2022-12-29T02:12:45.151Z,99997.41
2022-12-29T02:15:13.156Z,100013.28
2022-12-29T02:17:52.253Z,100003.69
2022-12-29T02:20:48.232Z,99996.25
2022-12-29T02:24:00.667Z,99999.19
2022-12-29T02:26:50.781Z,100033.94
2022-12-29T02:29:38.592Z,100007.47
2022-12-29T02:32:10.309Z,99992.59
2022-12-29T02:34:46.668Z,99976.94
2022-12-29T02:37:22.212Z,99997.66
2022-12-29T02:39:54.318Z,99993.16
2022-12-29T02:42:25.250Z,99979.34
2022-12-29T02:44:57.737Z,99982.78
2022-12-29T02:47:32.264Z,99976.69
2022-12-29T02:50:04.597Z,99992.06
2022-12-29T02:52:36.215Z,99974.03
2022-12-29T02:55:03.911Z,99962.31
2022-12-29T02:57:34.836Z,99947.47
2022-12-29T03:00:08.523Z,99959.94
2022-12-29T03:02:50.210Z,99953.03
2022-12-29T03:05:32.503Z,99963.13
2022-12-29T03:08:06.537Z,99979.31
2022-12-29T03:10:40.927Z,99957.03
2022-12-29T03:13:32.413Z,99948.56
2022-12-29T03:16:06.663Z,99952.28
2022-12-29T03:18:41.791Z,99964.97
2022-12-29T03:21:14.440Z,99944.28
2022-12-29T03:23:48.405Z,99944.81
2022-12-29T03:26:19.492Z,99924.63
2022-12-29T03:28:50.847Z,99916.94
2022-12-29T03:31:24.837Z,99924.63
2022-12-29T03:33:57.676Z,99909.22
2022-12-29T03:36:34.614Z,99906.56
2022-12-29T03:39:06.055Z,99908.19
2022-12-29T03:41:35.113Z,99903.38
2022-12-29T03:44:04.859Z,99900.47
2022-12-29T03:46:33.644Z,99895.44
2022-12-29T03:49:03.560Z,99893.28
2022-12-29T03:51:31.849Z,99889.31
2022-12-29T03:53:59.896Z,99887.72
2022-12-29T03:56:28.839Z,99884.81
2022-12-29T03:58:56.815Z,99871.56
2022-12-29T04:01:40.181Z,99874.72
2022-12-29T04:04:10.535Z,99866.00
2022-12-29T04:06:38.770Z,99865.72
2022-12-29T04:09:08.664Z,99863.06
2022-12-29T04:11:42.568Z,99876.06
2022-12-29T04:14:10.621Z,99867.31
2022-12-29T04:16:39.804Z,99869.97
2022-12-29T04:19:10.157Z,99869.97
2022-12-29T04:21:38.977Z,99874.72
2022-12-29T04:24:08.311Z,99869.44
2022-12-29T04:26:41.307Z,99867.31
2022-12-29T04:29:29.521Z,99877.38
2022-12-29T04:32:16.143Z,99874.47
2022-12-29T04:34:50.766Z,99864.66
2022-12-29T04:37:19.963Z,99858.00
2022-12-29T04:39:48.115Z,99867.03
2022-12-29T04:42:16.372Z,99860.66
2022-12-29T04:44:45.499Z,99864.66
2022-12-29T04:47:19.162Z,99855.09
2022-12-29T04:49:55.740Z,99853.00
2022-12-29T04:52:39.784Z,99862.03
2022-12-29T04:55:10.448Z,99854.31
2022-12-29T04:57:38.725Z,99864.16
2022-12-29T05:00:09.880Z,99871.84
2022-12-29T05:02:38.967Z,99863.88
2022-12-29T05:05:09.577Z,99864.94
2022-12-29T05:07:42.564Z,99880.63
2022-12-29T05:10:11.661Z,99879.81
2022-12-29T05:12:40.436Z,99877.44
2022-12-29T05:15:13.041Z,99887.50
2022-12-29T05:17:41.216Z,99879.53
2022-12-29T05:20:12.369Z,99862.53
2022-12-29T05:22:40.515Z,99862.53
2022-12-29T05:25:09.775Z,99856.72
2022-12-29T05:27:49.759Z,99879.00
2022-12-29T05:30:23.457Z,99875.28
2022-12-29T05:32:51.660Z,99874.50
2022-12-29T05:35:21.405Z,99875.00
2022-12-29T05:37:49.611Z,99883.78
2022-12-29T05:40:17.813Z,99878.47
2022-12-29T05:42:46.068Z,99888.03
2022-12-29T05:45:30.508Z,99871.31
2022-12-29T05:48:26.358Z,99869.47
2022-12-29T05:51:34.066Z,99875.03
2022-12-29T05:54:02.573Z,99872.38
2022-12-29T05:56:30.602Z,99880.59
2022-12-29T05:59:00.444Z,99884.84
2022-12-29T06:01:28.502Z,99871.03
2022-12-29T06:03:56.780Z,99884.59
2022-12-29T06:06:24.820Z,99877.97
2022-12-29T06:08:54.579Z,99868.66
2022-12-29T06:11:22.926Z,99867.84
2022-12-29T06:13:56.699Z,99857.25
2022-12-29T06:16:25.948Z,99856.69
2022-12-29T06:18:57.423Z,99854.06
2022-12-29T06:21:25.376Z,99844.50
2022-12-29T06:23:54.920Z,99846.63
2022-12-29T06:26:22.921Z,99843.47
2022-12-29T06:28:51.065Z,99845.56
2022-12-29T06:31:19.088Z,99849.78
2022-12-29T06:33:50.052Z,99851.38
2022-12-29T06:36:18.490Z,99843.97
2022-12-29T06:38:46.699Z,99855.09
2022-12-29T06:41:16.033Z,99839.44
2022-12-29T06:43:45.517Z,99842.13
2022-12-29T06:46:30.618Z,99834.97
2022-12-29T06:48:58.815Z,99839.69
2022-12-29T06:51:26.759Z,99838.66
2022-12-29T06:53:54.954Z,99843.44
2022-12-29T06:56:24.278Z,99832.31
2022-12-29T06:58:52.404Z,99839.72
2022-12-29T07:01:20.417Z,99831.22
2022-12-29T07:03:48.658Z,99826.47
2022-12-29T07:06:16.789Z,99829.91
2022-12-29T07:08:44.946Z,99840.25
2022-12-29T07:11:12.881Z,99837.63
2022-12-29T07:13:42.415Z,99841.31
2022-12-29T07:16:11.398Z,99848.22
2022-12-29T07:18:39.729Z,99841.31
2022-12-29T07:21:07.722Z,99849.28
2022-12-29T07:23:35.912Z,99848.50
2022-12-29T07:26:05.977Z,99843.97
2022-12-29T07:28:34.224Z,99851.66
2022-12-29T07:31:03.755Z,99851.94
2022-12-29T07:33:32.526Z,99849.81
2022-12-29T07:36:00.864Z,99851.94
2022-12-29T07:38:29.048Z,99846.06
2022-12-29T07:40:59.767Z,99867.84
2022-12-29T07:43:29.195Z,99862.03
2022-12-29T07:46:56.512Z,99859.88
2022-12-29T07:49:15.166Z,99853.00
2022-12-29T07:51:43.106Z,99857.78
2022-12-29T07:54:12.928Z,99854.56
2022-12-29T07:56:41.334Z,99857.78
2022-12-29T07:59:09.529Z,99848.50
2022-12-29T08:01:38.874Z,99858.31
2022-12-29T08:04:07.247Z,99860.44
2022-12-29T08:06:35.220Z,99871.56
2022-12-29T08:09:11.285Z,99871.56
2022-12-29T08:11:43.825Z,99874.22
2022-12-29T08:14:12.298Z,99871.03
2022-12-29T08:16:50.906Z,99885.88
2022-12-29T08:19:19.046Z,99890.66
2022-12-29T08:21:47.021Z,99901.31
2022-12-29T08:24:15.201Z,99906.63
2022-12-29T08:26:43.186Z,99907.13
2022-12-29T08:29:11.405Z,99897.31
2022-12-29T08:31:39.595Z,99896.78
2022-12-29T08:34:09.196Z,99901.81
2022-12-29T08:36:37.131Z,99917.22
2022-12-29T08:39:05.514Z,99901.56
2022-12-29T08:41:33.463Z,99919.88
2022-12-29T08:44:01.762Z,99916.94
2022-12-29T08:46:29.753Z,99925.72
2022-12-29T08:48:58.281Z,99922.50
2022-12-29T08:51:27.530Z,99910.56
2022-12-29T08:53:55.720Z,99911.63
2022-12-29T08:56:24.645Z,99912.44
2022-12-29T08:58:56.215Z,99915.09
2022-12-29T09:01:25.636Z,99916.16
2022-12-29T09:04:14.027Z,99923.59
2022-12-29T09:06:44.791Z,99919.31
2022-12-29T09:09:13.360Z,99920.94
2022-12-29T09:11:41.344Z,99927.28
2022-12-29T09:14:09.637Z,99934.22
2022-12-29T09:16:38.152Z,99932.59
2022-12-29T09:19:06.565Z,99937.13
2022-12-29T09:21:34.618Z,99920.66
2022-12-29T09:24:04.489Z,99937.88
2022-12-29T09:26:32.426Z,99938.94
2022-12-29T09:29:00.668Z,99944.19
2022-12-29T09:31:28.649Z,99953.50
2022-12-29T09:33:56.815Z,99946.50
2022-12-29T09:36:24.795Z,99963.81
2022-12-29T09:38:55.206Z,99959.25
2022-12-29T09:41:29.106Z,99976.81
2022-12-29T09:44:05.620Z,99959.47
2022-12-29T09:46:37.402Z,99957.34
2022-12-29T09:49:11.984Z,99954.66
2022-12-29T09:51:41.855Z,99982.84
2022-12-29T09:54:23.319Z,99969.78
2022-12-29T09:56:54.664Z,99970.28
2022-12-29T09:59:26.437Z,99982.78
2022-12-29T10:01:59.795Z,99982.25
2022-12-29T10:04:28.717Z,99978.50
2022-12-29T10:07:30.636Z,99994.47
2022-12-29T10:09:55.708Z,99988.63
2022-12-29T10:12:32.124Z,99975.88
2022-12-29T10:15:05.720Z,99973.19
2022-12-29T10:17:38.511Z,99983.81
2022-12-29T10:20:27.615Z,99993.91
2022-12-29T10:23:07.274Z,99994.00
2022-12-29T10:25:40.805Z,100001.88
2022-12-29T10:28:19.395Z,99972.16
2022-12-29T10:30:49.473Z,99973.22
2022-12-29T10:33:21.596Z,99988.66
2022-12-29T10:35:50.328Z,99987.03
2022-12-29T10:38:24.794Z,99996.59
2022-12-29T10:40:56.508Z,99963.13
2022-12-29T10:43:27.859Z,99973.78
2022-12-29T10:45:58.405Z,99966.63
2022-12-29T10:48:31.985Z,99966.09
2022-12-29T10:51:02.509Z,99982.34
2022-12-29T10:53:37.249Z,99975.91
2022-12-29T10:56:11.285Z,99964.25
2022-12-29T10:58:44.661Z,99965.28
2022-12-29T11:01:16.516Z,99968.72
2022-12-29T11:04:01.593Z,99988.13
2022-12-29T11:06:31.269Z,99982.19
2022-12-29T11:09:00.743Z,99979.66
2022-12-29T11:11:35.687Z,99986.22
2022-12-29T11:14:14.255Z,99971.47
2022-12-29T11:16:45.487Z,99979.56
2022-12-29T11:19:23.031Z,99969.97
2022-12-29T11:21:51.548Z,99981.03
2022-12-29T11:24:24.815Z,99972.41
2022-12-29T11:26:58.096Z,99977.72
2022-12-29T11:29:30.229Z,99985.91
2022-12-29T11:32:00.233Z,99985.44
2022-12-29T11:34:33.685Z,99976.47
2022-12-29T11:37:04.827Z,99971.22
2022-12-29T11:39:36.419Z,99981.97
2022-12-29T11:42:05.396Z,99990.56
2022-12-29T11:44:38.901Z,99977.72
2022-12-29T11:47:07.546Z,99978.38
2022-12-29T11:49:35.542Z,99990.59
2022-12-29T11:52:03.907Z,99993.34
2022-12-29T11:54:33.862Z,99990.19
2022-12-29T11:57:11.994Z,99974.72
2022-12-29T11:59:43.290Z,99966.22
2022-12-29T12:02:27.040Z,99967.56
2022-12-29T12:04:59.067Z,99981.13
2022-12-29T12:07:37.828Z,100012.03
2022-12-29T12:10:08.557Z,99984.88
2022-12-29T12:12:40.243Z,100009.41
2022-12-29T12:15:15.792Z,99986.47
2022-12-29T12:17:53.761Z,99996.59
2022-12-29T12:20:24.194Z,100006.22
2022-12-29T12:23:00.393Z,99981.94
2022-12-29T12:25:31.742Z,99988.41
2022-12-29T12:28:02.695Z,100001.09
2022-12-29T12:30:38.256Z,99958.44
2022-12-29T12:33:08.234Z,99973.16
2022-12-29T12:35:44.361Z,99966.16
2022-12-29T12:38:20.882Z,99996.00
2022-12-29T12:40:59.165Z,99971.97
2022-12-29T12:43:39.277Z,99973.88
2022-12-29T12:46:29.992Z,99968.34
2022-12-29T12:49:14.012Z,99984.41
2022-12-29T12:51:50.035Z,99968.75
2022-12-29T12:54:32.654Z,99977.28
2022-12-29T12:57:10.532Z,99969.59
2022-12-29T12:59:48.529Z,99962.16
2022-12-29T13:02:33.689Z,99969.56
2022-12-29T13:05:29.590Z,99960.03
2022-12-29T13:08:09.024Z,99962.66
2022-12-29T13:10:47.080Z,99956.81
2022-12-29T13:13:34.726Z,99957.78
2022-12-29T13:16:12.393Z,99958.63
2022-12-29T13:18:50.721Z,99959.44
2022-12-29T13:21:29.280Z,99962.53
2022-12-29T13:24:03.169Z,99957.28
2022-12-29T13:26:34.825Z,99961.50
2022-12-29T13:29:08.643Z,99962.53
2022-12-29T13:31:42.404Z,99979.13
2022-12-29T13:34:19.063Z,99963.16
2022-12-29T13:36:48.584Z,99960.00
2022-12-29T13:39:21.396Z,99967.19
2022-12-29T13:41:51.926Z,99970.69
2022-12-29T13:44:23.706Z,99967.06
2022-12-29T13:46:51.937Z,99968.66
2022-12-29T13:49:22.829Z,99958.03
2022-12-29T13:51:52.681Z,99960.72
2022-12-29T13:54:29.067Z,99980.13
2022-12-29T13:57:04.875Z,99976.16
2022-12-29T13:59:41.846Z,99986.78
2022-12-29T14:02:19.007Z,99968.72
2022-12-29T14:05:00.216Z,99974.03
2022-12-29T14:07:29.097Z,99972.44
2022-12-29T14:09:58.452Z,99976.69
2022-12-29T14:12:32.421Z,100002.19
2022-12-29T14:15:16.335Z,99997.63
2022-12-29T14:18:02.338Z,99998.44
2022-12-29T14:20:31.958Z,99997.91
2022-12-29T14:23:02.367Z,99994.16
2022-12-29T14:25:59.339Z,100001.03
2022-12-29T14:28:29.752Z,100002.63
2022-12-29T14:30:59.190Z,100002.63
2022-12-29T14:33:30.202Z,100011.66
2022-12-29T14:36:22.799Z,100031.81
2022-12-29T14:38:51.107Z,100019.53
2022-12-29T14:41:25.752Z,100020.00
2022-12-29T14:43:57.056Z,100027.34
2022-12-29T14:46:26.489Z,100009.06
2022-12-29T14:49:01.805Z,100010.91
2022-12-29T14:51:33.911Z,100011.47
2022-12-29T14:54:02.382Z,100032.59
2022-12-29T14:56:32.200Z,100019.97
2022-12-29T14:59:03.248Z,100017.75
2022-12-29T15:01:42.199Z,100029.16
2022-12-29T15:04:19.688Z,100030.44
2022-12-29T15:06:51.865Z,100030.47
2022-12-29T15:09:27.075Z,100035.22
2022-12-29T15:11:57.069Z,100032.81
2022-12-29T15:14:37.233Z,100035.13
2022-12-29T15:17:12.662Z,100024.53
2022-12-29T15:19:40.789Z,100024.31
2022-12-29T15:22:11.412Z,100018.78
2022-12-29T15:24:43.550Z,100016.72
2022-12-29T15:27:15.269Z,100009.59
2022-12-29T15:29:44.827Z,100032.66
2022-12-29T15:32:20.245Z,100036.38
2022-12-29T15:34:50.034Z,100041.69
2022-12-29T15:37:23.075Z,100044.84
2022-12-29T15:39:51.620Z,100053.81
2022-12-29T15:42:31.905Z,100058.81
2022-12-29T15:45:10.273Z,100047.03
2022-12-29T15:47:39.054Z,100052.28
2022-12-29T15:50:10.771Z,100064.19
2022-12-29T15:52:41.157Z,100070.00
2022-12-29T15:55:21.499Z,100071.88
2022-12-29T15:57:49.421Z,100083.22
2022-12-29T16:00:29.063Z,100087.22
2022-12-29T16:02:59.488Z,100089.41
2022-12-29T16:05:33.868Z,100089.13
2022-12-29T16:08:03.625Z,100089.31
2022-12-29T16:10:35.384Z,100082.88
2022-12-29T16:13:05.355Z,100104.00
2022-12-29T16:15:33.512Z,100107.72
2022-12-29T16:18:01.639Z,100106.03
2022-12-29T16:20:39.152Z,100125.06
2022-12-29T16:23:18.973Z,100110.50
2022-12-29T16:25:47.227Z,100108.19
2022-12-29T16:28:19.903Z,100101.00
2022-12-29T16:30:48.312Z,100101.78
2022-12-29T16:33:37.642Z,100095.38
2022-12-29T16:36:28.309Z,100100.19
2022-12-29T16:39:29.224Z,100097.31
2022-12-29T16:41:57.917Z,100112.13
2022-12-29T16:44:27.774Z,100118.38
2022-12-29T16:47:20.524Z,100117.94
2022-12-29T16:49:54.388Z,100122.47
2022-12-29T16:52:25.687Z,100107.06
2022-12-29T16:54:56.967Z,100115.56
2022-12-29T16:57:31.048Z,100123.56
2022-12-29T17:00:01.696Z,100127.56
2022-12-29T17:02:31.826Z,100134.25
2022-12-29T17:04:59.895Z,100135.25
2022-12-29T17:07:29.372Z,100130.94
2022-12-29T17:09:58.783Z,100136.22
2022-12-29T17:12:28.335Z,100135.91
2022-12-29T17:14:57.227Z,100140.88
2022-12-29T17:17:32.760Z,100125.06
2022-12-29T17:20:03.896Z,100137.72
2022-12-29T17:22:32.940Z,100143.69
2022-12-29T17:25:03.587Z,100142.44
2022-12-29T17:27:35.845Z,100146.81
2022-12-29T17:30:07.167Z,100139.94
2022-12-29T17:32:35.409Z,100139.94
2022-12-29T17:35:03.910Z,100128.28
2022-12-29T17:37:37.356Z,100131.25
2022-12-29T17:40:08.820Z,100127.75
2022-12-29T17:42:39.871Z,100122.28
2022-12-29T17:45:13.390Z,100126.91
2022-12-29T17:47:41.642Z,100147.56
2022-12-29T17:50:12.947Z,100147.63
2022-12-29T17:52:41.116Z,100147.88
2022-12-29T17:55:16.697Z,100153.22
2022-12-29T17:57:44.928Z,100153.63
2022-12-29T18:00:16.740Z,100142.53
2022-12-29T18:02:45.304Z,100135.75
2022-12-29T18:05:19.265Z,100139.50
2022-12-29T18:07:47.765Z,100149.03
2022-12-29T18:10:17.153Z,100141.53
2022-12-29T18:12:47.194Z,100136.22
2022-12-29T18:15:20.576Z,100137.06
2022-12-29T18:17:49.121Z,100106.47
2022-12-29T18:20:17.735Z,100110.47
2022-12-29T18:22:45.672Z,100125.16
2022-12-29T18:25:24.646Z,100117.75
2022-12-29T18:27:52.774Z,100122.75
2022-12-29T18:30:20.969Z,100131.63
2022-12-29T18:32:48.971Z,100127.72
2022-12-29T18:35:19.851Z,100131.63
2022-12-29T18:37:47.805Z,100135.47
2022-12-29T18:40:16.160Z,100147.19
2022-12-29T18:42:45.461Z,100139.50
2022-12-29T18:45:17.057Z,100139.19
2022-12-29T18:47:44.986Z,100150.00
2022-12-29T18:50:13.610Z,100134.13
2022-12-29T18:52:41.551Z,100146.31
2022-12-29T18:55:13.434Z,100143.66
2022-12-29T18:57:41.533Z,100144.09
2022-12-29T19:00:13.649Z,100145.25
2022-12-29T19:02:41.886Z,100139.56
2022-12-29T19:05:20.344Z,100142.72
2022-12-29T19:07:48.367Z,100152.41
2022-12-29T19:10:16.823Z,100149.00
2022-12-29T19:12:44.781Z,100147.19
2022-12-29T19:15:23.520Z,100138.78
2022-12-29T19:18:16.070Z,100134.34
2022-12-29T19:20:41.692Z,100141.53
2022-12-29T19:23:11.538Z,100137.84
2022-12-29T19:25:40.479Z,100142.94
2022-12-29T19:28:10.531Z,100141.06
2022-12-29T19:30:40.024Z,100139.28
2022-12-29T19:33:10.017Z,100150.63
2022-12-29T19:35:38.674Z,100153.16
2022-12-29T19:38:06.665Z,100153.38
2022-12-29T19:40:34.999Z,100144.16
2022-12-29T19:43:02.957Z,100147.63
2022-12-29T19:45:31.406Z,100150.78
2022-12-29T19:48:00.674Z,100153.47
2022-12-29T19:50:28.832Z,100157.09
2022-12-29T19:53:04.796Z,100163.13
2022-12-29T19:55:33.896Z,100157.41
2022-12-29T19:58:01.822Z,100172.88
2022-12-29T20:00:31.063Z,100173.75
2022-12-29T20:03:00.425Z,100165.44
2022-12-29T20:05:28.914Z,100168.84
2022-12-29T20:07:56.778Z,100165.69
2022-12-29T20:10:24.937Z,100165.31
2022-12-29T20:12:52.838Z,100165.94
2022-12-29T20:15:21.033Z,100168.53
2022-12-29T20:20:38.673Z,100183.28
2022-12-29T20:23:06.627Z,100182.53
2022-12-29T20:25:44.724Z,100190.88
2022-12-29T20:28:15.340Z,100198.22
2022-12-29T20:30:44.029Z,100195.03
2022-12-29T20:33:11.945Z,100205.91
2022-12-29T20:35:41.580Z,100219.63
2022-12-29T20:38:09.471Z,100217.94
2022-12-29T20:40:44.271Z,100222.28
2022-12-29T20:43:15.723Z,100217.00
2022-12-29T20:45:44.312Z,100204.78
2022-12-29T20:48:12.424Z,100210.56
2022-12-29T20:50:41.992Z,100221.63
2022-12-29T20:53:11.526Z,100213.13
2022-12-29T20:55:41.260Z,100207.31
2022-12-29T20:58:25.612Z,100213.63
2022-12-29T21:00:54.223Z,100204.78
2022-12-29T21:03:22.589Z,100203.78
2022-12-29T21:05:53.509Z,100208.81
2022-12-29T21:08:22.035Z,100214.91
2022-12-29T21:10:51.080Z,100225.00
2022-12-29T21:13:19.023Z,100216.19
2022-12-29T21:15:47.794Z,100223.25
2022-12-29T21:18:15.730Z,100213.13
2022-12-29T21:20:43.934Z,100211.88
2022-12-29T21:23:13.358Z,100202.56
2022-12-29T21:25:44.622Z,100220.19
2022-12-29T21:28:13.057Z,100235.06
2022-12-29T21:30:41.694Z,100240.69
2022-12-29T21:33:09.919Z,100231.78
2022-12-29T21:35:38.766Z,100239.56
2022-12-29T21:38:07.239Z,100235.88
2022-12-29T21:40:37.550Z,100246.22
2022-12-29T21:43:05.951Z,100244.84
2022-12-29T21:45:34.069Z,100253.34
2022-12-29T21:48:20.964Z,100251.84
2022-12-29T21:51:09.203Z,100250.13
2022-12-29T21:53:40.449Z,100255.91
2022-12-29T21:56:12.938Z,100262.94
2022-12-29T21:59:01.326Z,100268.09
2022-12-29T22:01:49.222Z,100270.34
2022-12-29T22:04:36.465Z,100278.88
2022-12-29T22:07:23.431Z,100276.72
2022-12-29T22:10:09.281Z,100276.41
2022-12-29T22:12:56.908Z,100280.16
2022-12-29T22:15:24.909Z,100286.97
2022-12-29T22:17:54.918Z,100300.19
2022-12-29T22:20:24.604Z,100295.22
2022-12-29T22:22:53.004Z,100295.47
2022-12-29T22:25:21.222Z,100309.41
2022-12-29T22:27:55.642Z,100323.19
2022-12-29T22:30:27.327Z,100319.97
2022-12-29T22:32:56.500Z,100309.00
2022-12-29T22:35:24.737Z,100316.03
2022-12-29T22:37:52.955Z,100314.69
2022-12-29T22:40:21.132Z,100324.38
2022-12-29T22:42:50.642Z,100319.59
2022-12-29T22:45:18.836Z,100326.38
2022-12-29T22:47:47.055Z,100333.75
2022-12-29T22:50:14.979Z,100337.66
2022-12-29T22:52:43.160Z,100346.88
2022-12-29T22:55:11.179Z,100346.88
2022-12-29T22:57:39.438Z,100345.75
2022-12-29T23:00:10.248Z,100352.44
2022-12-29T23:02:39.084Z,100362.06
2022-12-29T23:05:07.670Z,100373.13
2022-12-29T23:07:36.662Z,100380.56
2022-12-29T23:10:05.697Z,100376.22
2022-12-29T23:12:33.910Z,100384.50
2022-12-29T23:15:01.907Z,100381.41
2022-12-29T23:17:31.888Z,100373.88
2022-12-29T23:19:59.783Z,100377.22
2022-12-29T23:22:27.980Z,100372.84
2022-12-29T23:24:55.893Z,100368.38
2022-12-29T23:27:24.097Z,100369.63
2022-12-29T23:29:52.017Z,100364.59
2022-12-29T23:32:20.349Z,100367.38
2022-12-29T23:34:49.650Z,100370.56
2022-12-29T23:37:17.848Z,100377.16
2022-12-29T23:39:45.734Z,100374.50
2022-12-29T23:42:13.922Z,100373.94
2022-12-29T23:44:41.854Z,100388.03
2022-12-29T23:47:10.062Z,100386.97
2022-12-29T23:49:38.010Z,100387.19
2022-12-29T23:52:07.551Z,100386.22
2022-12-29T23:54:35.448Z,100399.16
2022-12-29T23:57:03.587Z,100395.38
2022-12-29T23:59:31.495Z,100407.75
